createdAt,value
2022-09-05T00:02:35.137Z,13.45
2022-09-05T00:06:03.928Z,13.86
2022-09-05T00:09:06.212Z,14.40
2022-09-05T00:12:00.846Z,14.55
2022-09-05T00:15:17.120Z,14.56
2022-09-05T00:21:51.172Z,14.22
2022-09-05T00:24:29.349Z,14.12
2022-09-05T00:25:30.440Z,13.77
2022-09-05T00:28:26.936Z,13.80
2022-09-05T00:31:53.957Z,14.32
2022-09-05T00:34:48.512Z,14.49
2022-09-05T00:37:45.723Z,14.48
2022-09-05T00:40:43.136Z,14.08
2022-09-05T00:43:34.266Z,14.16
2022-09-05T00:46:34.150Z,14.34
2022-09-05T00:49:30.086Z,14.19
2022-09-05T00:52:39.477Z,14.19
2022-09-05T00:55:52.737Z,14.07
2022-09-05T00:59:11.078Z,13.99
2022-09-05T01:02:19.780Z,13.79
2022-09-05T01:05:23.951Z,13.88
2022-09-05T01:08:38.739Z,13.96
2022-09-05T01:11:53.308Z,14.06
2022-09-05T01:15:02.190Z,14.13
2022-09-05T01:18:14.768Z,13.80
2022-09-05T01:21:19.995Z,13.22
2022-09-05T01:24:09.577Z,13.17
2022-09-05T01:26:59.644Z,13.17
2022-09-05T01:29:50.534Z,13.24
2022-09-05T01:32:52.072Z,13.04
2022-09-05T01:36:10.905Z,13.13
2022-09-05T01:40:11.394Z,13.16
2022-09-05T01:42:37.311Z,13.39
2022-09-05T01:46:01.682Z,13.42
2022-09-05T01:49:09.380Z,13.37
2022-09-05T01:52:14.839Z,13.25
2022-09-05T01:55:22.516Z,13.06
2022-09-05T01:58:24.527Z,13.07
2022-09-05T02:01:27.992Z,13.02
2022-09-05T02:04:41.687Z,12.97
2022-09-05T02:07:46.904Z,12.76
2022-09-05T02:11:05.399Z,12.62
2022-09-05T02:14:07.510Z,12.47
2022-09-05T02:16:57.693Z,12.66
2022-09-05T02:19:53.525Z,12.72
2022-09-05T02:22:44.771Z,12.99
2022-09-05T02:26:16.908Z,12.96
2022-09-05T02:29:29.021Z,12.72
2022-09-05T02:32:26.405Z,12.86
2022-09-05T02:35:30.514Z,12.85
2022-09-05T02:40:53.467Z,12.56
2022-09-05T02:45:15.331Z,12.44
2022-09-05T02:45:33.003Z,12.13
2022-09-05T02:48:35.229Z,12.09
2022-09-05T02:57:23.126Z,12.04
2022-09-05T02:57:43.080Z,12.35
2022-09-05T02:58:14.638Z,12.71
2022-09-05T03:01:16.533Z,12.95
2022-09-05T03:04:37.645Z,13.12
2022-09-05T03:07:53.727Z,13.19
2022-09-05T03:11:12.161Z,13.33
2022-09-05T03:14:26.364Z,13.20
2022-09-05T03:17:31.851Z,12.98
2022-09-05T03:20:37.019Z,12.73
2022-09-05T03:23:58.031Z,12.73
2022-09-05T03:27:15.811Z,12.86
2022-09-05T03:30:12.151Z,13.00
2022-09-05T03:33:54.312Z,12.98
2022-09-05T03:36:46.977Z,12.99
2022-09-05T03:40:16.325Z,13.01
2022-09-05T03:43:25.986Z,13.21
2022-09-05T03:46:24.934Z,13.17
2022-09-05T03:53:40.751Z,13.29
2022-09-05T03:57:10.997Z,13.14
2022-09-05T03:57:17.965Z,13.25
2022-09-05T03:59:45.885Z,13.01
2022-09-05T04:04:54.937Z,12.65
2022-09-05T04:08:15.978Z,13.07
2022-09-05T04:09:49.048Z,13.04
2022-09-05T04:12:38.846Z,12.46
2022-09-05T04:15:43.709Z,12.17
2022-09-05T04:18:54.743Z,12.18
2022-09-05T04:22:12.793Z,12.09
2022-09-05T04:24:59.728Z,11.61
2022-09-05T04:28:07.927Z,11.27
2022-09-05T04:31:13.391Z,11.89
2022-09-05T04:34:42.424Z,12.21
2022-09-05T04:37:55.374Z,12.51
2022-09-05T04:40:48.315Z,12.64
2022-09-05T04:43:49.535Z,12.56
2022-09-05T04:46:47.465Z,12.49
2022-09-05T04:49:49.921Z,12.73
2022-09-05T04:52:54.835Z,13.11
2022-09-05T04:55:46.850Z,12.97
2022-09-05T05:02:27.048Z,12.51
2022-09-05T05:06:02.872Z,12.61
2022-09-05T05:06:19.945Z,12.79
2022-09-05T05:08:39.131Z,13.01
2022-09-05T05:18:02.451Z,13.47
2022-09-05T05:18:09.601Z,14.08
2022-09-05T05:18:39.797Z,14.36
2022-09-05T05:21:21.644Z,14.74
2022-09-05T05:24:21.829Z,14.42
2022-09-05T05:27:25.303Z,13.78
2022-09-05T05:30:22.788Z,14.08
2022-09-05T05:33:28.872Z,14.43
2022-09-05T05:36:47.549Z,14.95
2022-09-05T05:39:41.772Z,14.76
2022-09-05T05:42:28.899Z,14.97
2022-09-05T05:45:30.991Z,14.95
2022-09-05T05:48:17.929Z,15.51
2022-09-05T05:52:01.517Z,16.09
2022-09-05T05:55:09.736Z,17.32
2022-09-05T05:58:41.978Z,17.37
2022-09-05T06:01:57.574Z,16.74
2022-09-05T06:05:16.707Z,17.24
2022-09-05T06:11:13.952Z,15.62
2022-09-05T06:15:03.765Z,16.02
2022-09-05T06:16:05.782Z,16.02
2022-09-05T06:19:43.611Z,15.71
2022-09-05T06:22:58.269Z,16.46
2022-09-05T06:25:57.314Z,17.02
2022-09-05T06:29:08.849Z,16.68
2022-09-05T06:32:26.142Z,17.15
2022-09-05T06:35:32.158Z,17.33
2022-09-05T06:38:37.694Z,18.57
2022-09-05T06:41:58.353Z,19.61
2022-09-05T06:44:54.263Z,19.88
2022-09-05T06:47:46.869Z,19.64
2022-09-05T06:51:25.375Z,20.95
2022-09-05T06:54:32.514Z,20.27
2022-09-05T06:57:44.153Z,20.64
2022-09-05T07:00:50.408Z,20.33
2022-09-05T07:03:52.271Z,19.65
2022-09-05T07:07:01.617Z,20.50
2022-09-05T07:10:22.026Z,21.19
2022-09-05T07:13:42.745Z,19.68
2022-09-05T07:16:54.446Z,20.09
2022-09-05T07:19:45.517Z,19.20
2022-09-05T07:22:48.859Z,19.19
2022-09-05T07:25:37.452Z,19.60
2022-09-05T07:28:30.204Z,20.47
2022-09-05T07:31:37.464Z,20.43
2022-09-05T07:34:29.715Z,21.37
2022-09-05T07:37:19.474Z,20.61
2022-09-05T07:40:24.656Z,23.52
2022-09-05T07:43:33.576Z,25.38
2022-09-05T07:46:31.345Z,26.35
2022-09-05T07:49:24.043Z,25.04
2022-09-05T07:56:53.093Z,24.01
2022-09-05T07:57:03.723Z,23.17
2022-09-05T07:58:32.394Z,23.37
2022-09-05T08:01:22.618Z,23.87
2022-09-05T08:04:12.602Z,24.21
2022-09-05T08:07:49.878Z,23.82
2022-09-05T08:10:10.612Z,24.49
2022-09-05T08:13:24.192Z,24.53
2022-09-05T08:16:21.644Z,24.36
2022-09-05T08:19:39.340Z,23.81
2022-09-05T08:22:35.744Z,24.09
2022-09-05T08:25:41.529Z,25.19
2022-09-05T08:28:55.614Z,24.64
2022-09-05T08:31:53.430Z,25.56
2022-09-05T08:34:44.647Z,27.93
2022-09-05T08:37:34.327Z,25.28
2022-09-05T08:40:42.958Z,26.17
2022-09-05T08:46:26.801Z,27.71
2022-09-05T08:46:53.085Z,27.05
2022-09-05T08:50:08.193Z,26.57
2022-09-05T08:52:58.346Z,28.66
2022-09-05T08:56:18.069Z,31.21
2022-09-05T08:59:27.506Z,28.01
2022-09-05T09:02:46.936Z,27.43
2022-09-05T09:05:58.128Z,28.07
2022-09-05T09:09:05.313Z,29.71
2022-09-05T09:12:00.395Z,29.00
2022-09-05T09:15:18.086Z,27.12
2022-09-05T09:18:13.962Z,28.73
2022-09-05T09:21:23.412Z,26.45
2022-09-05T09:24:43.394Z,28.00
2022-09-05T09:28:45.193Z,28.90
2022-09-05T09:31:16.101Z,28.84
2022-09-05T09:34:23.157Z,29.47
2022-09-05T09:37:13.309Z,30.39
2022-09-05T09:40:29.989Z,29.28
2022-09-05T09:43:29.674Z,30.07
2022-09-05T09:46:25.097Z,29.23
2022-09-05T09:49:22.664Z,29.22
2022-09-05T09:52:45.945Z,31.18
2022-09-05T09:55:47.953Z,31.13
2022-09-05T09:59:03.197Z,31.41
2022-09-05T10:04:39.589Z,29.15
2022-09-05T10:10:46.164Z,33.01
2022-09-05T10:10:49.032Z,32.56
2022-09-05T10:13:08.556Z,33.27
2022-09-05T10:16:14.360Z,32.60
2022-09-05T10:20:10.004Z,33.45
2022-09-05T10:23:00.695Z,31.79
2022-09-05T10:26:15.397Z,30.72
2022-09-05T10:29:11.728Z,31.60
2022-09-05T10:35:05.253Z,33.15
2022-09-05T10:35:44.462Z,33.76
2022-09-05T10:38:46.646Z,34.50
2022-09-05T10:41:42.901Z,32.77
2022-09-05T10:44:40.864Z,32.80
2022-09-05T10:47:48.006Z,34.12
2022-09-05T10:50:44.566Z,31.25
2022-09-05T10:54:03.744Z,30.14
2022-09-05T10:57:01.778Z,32.56
2022-09-05T11:02:22.695Z,33.03
2022-09-05T11:03:53.591Z,32.43
2022-09-05T11:06:46.650Z,33.69
2022-09-05T11:09:42.451Z,32.00
2022-09-05T11:12:38.462Z,31.62
2022-09-05T11:15:51.324Z,31.66
2022-09-05T11:19:05.085Z,32.55
2022-09-05T11:22:04.293Z,31.09
2022-09-05T11:25:28.224Z,33.24
2022-09-05T11:28:57.614Z,33.83
2022-09-05T11:36:06.879Z,32.73
2022-09-05T11:39:45.991Z,33.66
2022-09-05T11:39:54.098Z,34.84
2022-09-05T11:42:49.745Z,30.70
2022-09-05T11:45:36.967Z,31.02
2022-09-05T11:48:29.995Z,33.27
2022-09-05T11:51:54.582Z,35.05
2022-09-05T11:54:56.893Z,36.01
2022-09-05T11:58:43.289Z,36.16
2022-09-05T12:01:45.909Z,33.92
2022-09-05T12:04:43.672Z,32.47
2022-09-05T12:07:52.760Z,33.19
2022-09-05T12:11:06.149Z,34.28
2022-09-05T12:14:13.752Z,34.17
2022-09-05T12:17:58.792Z,31.24
2022-09-05T12:21:19.572Z,30.77
2022-09-05T12:25:24.908Z,31.08
2022-09-05T12:27:46.070Z,30.38
2022-09-05T12:31:07.298Z,33.30
2022-09-05T12:36:02.466Z,34.65
2022-09-05T12:40:45.141Z,32.19
2022-09-05T12:40:59.816Z,33.45
2022-09-05T12:44:29.973Z,31.96
2022-09-05T12:47:17.041Z,34.30
2022-09-05T12:50:17.037Z,34.55
2022-09-05T12:53:12.648Z,35.21
2022-09-05T12:57:44.335Z,35.03
2022-09-05T13:03:05.628Z,34.18
2022-09-05T13:03:06.816Z,34.51
2022-09-05T13:05:58.362Z,34.70
2022-09-05T13:08:59.524Z,30.20
2022-09-05T13:14:49.162Z,28.89
2022-09-05T13:15:24.593Z,31.36
2022-09-05T13:18:24.873Z,32.87
2022-09-05T13:21:26.060Z,33.26
2022-09-05T13:24:22.174Z,32.28
2022-09-05T13:27:24.998Z,33.46
2022-09-05T13:33:22.682Z,34.05
2022-09-05T13:37:58.206Z,29.74
2022-09-05T13:38:05.480Z,29.41
2022-09-05T13:40:23.064Z,28.14
2022-09-05T13:43:22.877Z,28.07
2022-09-05T13:46:21.908Z,28.18
2022-09-05T13:49:27.567Z,27.47
2022-09-05T13:52:31.333Z,28.94
2022-09-05T13:55:39.948Z,28.55
2022-09-05T13:58:52.405Z,27.94
2022-09-05T14:02:27.581Z,28.45
2022-09-05T14:05:53.013Z,27.33
2022-09-05T14:08:46.066Z,29.74
2022-09-05T14:11:57.580Z,32.21
2022-09-05T14:17:57.801Z,30.70
2022-09-05T14:21:17.883Z,30.93
2022-09-05T14:24:16.962Z,33.07
2022-09-05T14:27:19.816Z,30.40
2022-09-05T14:34:04.144Z,31.31
2022-09-05T14:37:43.360Z,32.90
2022-09-05T14:38:01.386Z,33.12
2022-09-05T14:41:11.859Z,32.87
2022-09-05T14:44:17.549Z,31.49
2022-09-05T14:47:35.085Z,29.12
2022-09-05T14:50:51.054Z,28.64
2022-09-05T14:54:10.952Z,28.93
2022-09-05T15:00:12.124Z,30.14
2022-09-05T15:02:50.441Z,29.48
2022-09-05T15:07:03.933Z,28.67
2022-09-05T15:12:23.312Z,29.10
2022-09-05T15:13:26.238Z,29.83
2022-09-05T15:16:15.412Z,30.10
2022-09-05T15:19:02.494Z,28.29
2022-09-05T15:21:49.752Z,28.41
2022-09-05T15:24:36.821Z,28.65
2022-09-05T15:27:29.034Z,27.98
2022-09-05T15:30:35.545Z,26.95
2022-09-05T15:33:26.337Z,26.34
2022-09-05T15:36:29.612Z,26.80
2022-09-05T15:39:25.888Z,26.82
2022-09-05T15:42:20.290Z,26.69
2022-09-05T15:45:11.836Z,26.70
2022-09-05T15:48:22.568Z,26.99
2022-09-05T15:51:19.409Z,26.97
2022-09-05T15:54:06.769Z,27.05
2022-09-05T15:57:03.096Z,28.06
2022-09-05T15:59:54.961Z,28.88
2022-09-05T16:02:50.115Z,28.76
2022-09-05T16:10:35.103Z,28.23
2022-09-05T16:10:39.697Z,27.98
2022-09-05T16:12:42.271Z,26.70
2022-09-05T16:19:29.382Z,26.62
2022-09-05T16:23:12.304Z,26.81
2022-09-05T16:23:24.442Z,26.70
2022-09-05T16:25:24.080Z,26.70
2022-09-05T16:28:36.623Z,26.49
2022-09-05T16:31:29.267Z,25.86
2022-09-05T16:34:30.731Z,25.67
2022-09-05T16:37:25.546Z,25.50
2022-09-05T16:40:25.572Z,25.45
2022-09-05T16:43:32.126Z,25.30
2022-09-05T16:46:28.502Z,25.03
2022-09-05T16:49:41.593Z,25.02
2022-09-05T16:52:53.304Z,24.78
2022-09-05T16:55:46.177Z,25.00
2022-09-05T16:58:39.188Z,25.02
2022-09-05T17:02:05.842Z,25.17
2022-09-05T17:05:21.614Z,25.39
2022-09-05T17:08:27.992Z,25.20
2022-09-05T17:11:29.821Z,25.01
2022-09-05T17:14:21.804Z,24.81
2022-09-05T17:18:19.762Z,24.49
2022-09-05T17:20:33.288Z,24.43
2022-09-05T17:29:20.233Z,24.26
2022-09-05T17:29:34.295Z,24.05
2022-09-05T17:33:04.475Z,23.58
2022-09-05T17:36:03.291Z,23.53
2022-09-05T17:39:17.055Z,23.49
2022-09-05T17:42:13.575Z,23.21
2022-09-05T17:45:25.389Z,23.02
2022-09-05T17:48:29.597Z,22.96
2022-09-05T17:51:28.793Z,22.85
2022-09-05T17:54:18.793Z,22.68
2022-09-05T17:57:27.370Z,22.72
2022-09-05T18:00:55.275Z,22.49
2022-09-05T18:03:42.340Z,22.40
2022-09-05T18:06:43.539Z,21.84
2022-09-05T18:09:40.046Z,21.55
2022-09-05T18:13:13.420Z,21.37
2022-09-05T18:15:48.183Z,21.40
2022-09-05T18:19:28.892Z,21.36
2022-09-05T18:21:48.469Z,21.30
2022-09-05T18:24:40.224Z,20.75
2022-09-05T18:28:03.326Z,20.12
2022-09-05T18:30:39.974Z,20.46
2022-09-05T18:33:55.444Z,21.14
2022-09-05T18:36:34.616Z,21.26
2022-09-05T18:39:24.797Z,21.08
2022-09-05T18:42:26.416Z,21.07
2022-09-05T18:45:28.266Z,21.31
2022-09-05T18:48:29.809Z,21.01
2022-09-05T18:51:22.778Z,21.13
2022-09-05T18:54:18.421Z,21.16
2022-09-05T18:57:28.509Z,21.28
2022-09-05T19:00:35.162Z,21.10
2022-09-05T19:03:35.503Z,21.04
2022-09-05T19:06:36.834Z,21.14
2022-09-05T19:09:31.921Z,21.39
2022-09-05T19:12:33.943Z,20.66
2022-09-05T19:15:36.461Z,20.19
2022-09-05T19:18:27.246Z,19.95
2022-09-05T19:21:33.204Z,19.60
2022-09-05T19:24:21.110Z,19.31
2022-09-05T19:28:19.297Z,19.31
2022-09-05T19:37:08.195Z,19.40
2022-09-05T19:37:14.784Z,19.38
2022-09-05T19:37:29.752Z,19.40
2022-09-05T19:44:53.306Z,18.97
2022-09-05T19:47:42.434Z,18.86
2022-09-05T19:47:56.206Z,19.17
2022-09-05T19:49:33.404Z,18.63
2022-09-05T19:52:20.406Z,18.61
2022-09-05T19:55:22.702Z,18.51
2022-09-05T19:58:19.803Z,18.47
2022-09-05T20:01:14.538Z,18.85
2022-09-05T20:04:01.696Z,18.94
2022-09-05T20:06:50.298Z,19.36
2022-09-05T20:09:43.612Z,19.47
2022-09-05T20:12:34.906Z,19.50
2022-09-05T20:15:36.124Z,19.42
2022-09-05T20:18:28.351Z,19.42
2022-09-05T20:21:28.104Z,19.57
2022-09-05T20:24:15.344Z,19.54
2022-09-05T20:27:03.082Z,19.42
2022-09-05T20:30:06.183Z,19.40
2022-09-05T20:32:58.525Z,19.30
2022-09-05T20:42:40.071Z,19.42
2022-09-05T20:43:22.293Z,19.35
2022-09-05T20:43:31.022Z,19.50
2022-09-05T20:46:17.471Z,18.61
2022-09-05T20:54:09.786Z,17.93
2022-09-05T20:54:27.429Z,17.91
2022-09-05T20:55:39.916Z,18.31
2022-09-05T20:58:31.347Z,18.68
2022-09-05T21:01:23.511Z,19.09
2022-09-05T21:04:10.686Z,18.98
2022-09-05T21:07:10.385Z,18.97
2022-09-05T21:10:02.281Z,18.49
2022-09-05T21:12:53.172Z,18.84
2022-09-05T21:15:53.093Z,19.01
2022-09-05T21:18:43.441Z,18.70
2022-09-05T21:21:33.637Z,18.44
2022-09-05T21:24:24.349Z,18.16
2022-09-05T21:27:22.978Z,17.98
2022-09-05T21:30:31.096Z,17.52
2022-09-05T21:33:31.863Z,17.01
2022-09-05T21:36:30.934Z,17.01
2022-09-05T21:39:19.963Z,17.23
2022-09-05T21:42:22.933Z,17.09
2022-09-05T21:47:42.547Z,17.21
2022-09-05T21:48:22.741Z,17.22
2022-09-05T21:51:13.187Z,17.18
2022-09-05T21:59:18.404Z,17.83
2022-09-05T21:59:19.002Z,17.22
2022-09-05T22:00:27.212Z,17.81
2022-09-05T22:03:18.771Z,17.98
2022-09-05T22:06:11.776Z,18.10
2022-09-05T22:09:13.557Z,18.08
2022-09-05T22:12:14.615Z,18.23
2022-09-05T22:15:28.374Z,18.16
2022-09-05T22:18:18.286Z,18.04
2022-09-05T22:21:31.699Z,18.01
2022-09-05T22:24:15.237Z,17.96
2022-09-05T22:27:11.620Z,18.21
2022-09-05T22:30:01.965Z,17.87
2022-09-05T22:32:48.979Z,17.80
2022-09-05T22:35:39.139Z,18.00
2022-09-05T22:38:26.456Z,17.91
2022-09-05T22:41:14.636Z,17.73
2022-09-05T22:44:02.064Z,17.75
2022-09-05T22:46:49.051Z,17.24
2022-09-05T22:49:36.751Z,17.42
2022-09-05T22:52:23.757Z,17.53
2022-09-05T22:55:11.008Z,17.80
2022-09-05T22:57:57.952Z,17.59
2022-09-05T23:00:45.123Z,17.75
2022-09-05T23:03:32.643Z,17.35
2022-09-05T23:06:19.758Z,17.43
2022-09-05T23:09:06.705Z,17.70
2022-09-05T23:11:53.664Z,17.73
2022-09-05T23:14:40.600Z,17.77
2022-09-05T23:17:27.541Z,17.67
2022-09-05T23:20:14.653Z,16.92
2022-09-05T23:23:06.928Z,17.27
2022-09-05T23:25:53.990Z,17.18
2022-09-05T23:28:43.427Z,17.10
2022-09-05T23:31:30.599Z,16.87
2022-09-05T23:34:17.704Z,16.72
2022-09-05T23:37:08.211Z,16.56
2022-09-05T23:39:55.214Z,16.22
2022-09-05T23:42:42.296Z,15.92
2022-09-05T23:45:29.361Z,15.71
2022-09-05T23:48:16.790Z,15.91
2022-09-05T23:51:09.665Z,16.28
2022-09-05T23:53:56.634Z,16.34
2022-09-05T23:56:43.654Z,16.44
2022-09-05T23:59:30.793Z,16.25
